CNW3 weather

Bancroft Airport
Bancroft, Ontario, Canada

Public forecast

Using degrees Celsius for public forecast. Weather courtesy of forecast.io.

Closest aviation weather report (METAR) to Bancroft Airport

Closest report is Peterborough Airport, 54.7 nm (101.2 km) SSW. Retrieved 2020/06/02 08:00 UTC (19 minutes ago):

CYPQ 020800Z AUTO 20005KT 9SM BKN100 OVC130 13/09 A2997 RMK SLP152

Closest aviation forecast (TAF) to Bancroft Airport

Forecast is more than 12 hours old.

Closest forecast is Peterborough Airport, 54.7 nm (101.2 km) SSW. Retrieved 2020/06/01 20:00 UTC (12 hours ago):

TAF CYPQ 011938Z 0120/0202 27012KT P6SM BKN100 TEMPO 0120/0202 SCT100 BECMG 0200/0202 28005KT RMK FCST BASED ON AUTO OBS NXT FCST WILL BE ISSUED AT 020945Z